sensor_id;sensor_type;location;lat;lon;timestamp;P1;durP1;ratioP1;P2;durP2;ratioP2
20593;SDS011;10455;48.732;10.266;2023-04-24T00:03:09;4.37;;;3.70;;
20593;SDS011;10455;48.732;10.266;2023-04-24T00:08:14;5.90;;;5.03;;
20593;SDS011;10455;48.732;10.266;2023-04-24T00:13:16;10.83;;;8.07;;
20593;SDS011;10455;48.732;10.266;2023-04-24T00:18:18;12.07;;;9.80;;
20593;SDS011;10455;48.732;10.266;2023-04-24T00:23:21;12.03;;;10.03;;
20593;SDS011;10455;48.732;10.266;2023-04-24T00:28:23;13.80;;;9.83;;
20593;SDS011;10455;48.732;10.266;2023-04-24T00:33:25;15.07;;;11.57;;
20593;SDS011;10455;48.732;10.266;2023-04-24T00:38:28;16.30;;;13.77;;
20593;SDS011;10455;48.732;10.266;2023-04-24T00:43:30;20.20;;;15.80;;
20593;SDS011;10455;48.732;10.266;2023-04-24T00:48:32;20.47;;;15.67;;
20593;SDS011;10455;48.732;10.266;2023-04-24T00:53:36;17.80;;;14.83;;
20593;SDS011;10455;48.732;10.266;2023-04-24T00:58:41;15.60;;;11.97;;
20593;SDS011;10455;48.732;10.266;2023-04-24T01:03:43;16.83;;;12.83;;
20593;SDS011;10455;48.732;10.266;2023-04-24T01:08:46;15.10;;;11.53;;
20593;SDS011;10455;48.732;10.266;2023-04-24T01:13:49;12.67;;;10.73;;
20593;SDS011;10455;48.732;10.266;2023-04-24T01:18:52;12.77;;;10.20;;
20593;SDS011;10455;48.732;10.266;2023-04-24T01:23:55;10.20;;;9.20;;
20593;SDS011;10455;48.732;10.266;2023-04-24T01:28:57;10.47;;;8.77;;
20593;SDS011;10455;48.732;10.266;2023-04-24T01:33:59;11.63;;;9.37;;
20593;SDS011;10455;48.732;10.266;2023-04-24T01:39:03;11.53;;;8.00;;
20593;SDS011;10455;48.732;10.266;2023-04-24T01:44:05;10.03;;;8.93;;
20593;SDS011;10455;48.732;10.266;2023-04-24T01:49:07;10.57;;;8.80;;
20593;SDS011;10455;48.732;10.266;2023-04-24T01:54:10;11.13;;;7.97;;
20593;SDS011;10455;48.732;10.266;2023-04-24T01:59:12;12.13;;;7.10;;
20593;SDS011;10455;48.732;10.266;2023-04-24T02:04:16;7.97;;;7.03;;
20593;SDS011;10455;48.732;10.266;2023-04-24T02:09:19;7.00;;;6.30;;
20593;SDS011;10455;48.732;10.266;2023-04-24T02:14:21;8.73;;;5.90;;
20593;SDS011;10455;48.732;10.266;2023-04-24T02:19:23;8.30;;;6.13;;
20593;SDS011;10455;48.732;10.266;2023-04-24T02:24:27;10.47;;;5.13;;
20593;SDS011;10455;48.732;10.266;2023-04-24T02:29:28;5.63;;;4.50;;
20593;SDS011;10455;48.732;10.266;2023-04-24T02:34:31;5.40;;;4.90;;
20593;SDS011;10455;48.732;10.266;2023-04-24T02:39:34;4.67;;;4.27;;
20593;SDS011;10455;48.732;10.266;2023-04-24T02:44:36;6.03;;;4.40;;
20593;SDS011;10455;48.732;10.266;2023-04-24T02:49:38;6.37;;;4.60;;
20593;SDS011;10455;48.732;10.266;2023-04-24T02:54:41;6.43;;;5.07;;
20593;SDS011;10455;48.732;10.266;2023-04-24T02:59:43;5.97;;;5.20;;
20593;SDS011;10455;48.732;10.266;2023-04-24T03:04:45;6.77;;;5.23;;
20593;SDS011;10455;48.732;10.266;2023-04-24T03:09:49;5.53;;;4.67;;
20593;SDS011;10455;48.732;10.266;2023-04-24T03:14:51;5.47;;;4.97;;
20593;SDS011;10455;48.732;10.266;2023-04-24T03:19:52;10.23;;;5.60;;
20593;SDS011;10455;48.732;10.266;2023-04-24T03:24:59;7.73;;;6.27;;
20593;SDS011;10455;48.732;10.266;2023-04-24T03:30:01;8.73;;;6.10;;
20593;SDS011;10455;48.732;10.266;2023-04-24T03:35:04;8.47;;;6.43;;
20593;SDS011;10455;48.732;10.266;2023-04-24T03:40:09;7.30;;;6.60;;
20593;SDS011;10455;48.732;10.266;2023-04-24T03:45:11;8.00;;;6.83;;
20593;SDS011;10455;48.732;10.266;2023-04-24T03:50:13;10.07;;;7.77;;
20593;SDS011;10455;48.732;10.266;2023-04-24T03:55:17;7.50;;;6.40;;
20593;SDS011;10455;48.732;10.266;2023-04-24T04:00:19;10.50;;;7.33;;
20593;SDS011;10455;48.732;10.266;2023-04-24T04:05:21;8.70;;;6.93;;
20593;SDS011;10455;48.732;10.266;2023-04-24T04:10:24;8.20;;;7.13;;
20593;SDS011;10455;48.732;10.266;2023-04-24T04:15:26;8.00;;;7.17;;
20593;SDS011;10455;48.732;10.266;2023-04-24T04:20:28;9.93;;;7.83;;
20593;SDS011;10455;48.732;10.266;2023-04-24T04:25:32;10.13;;;8.03;;
20593;SDS011;10455;48.732;10.266;2023-04-24T04:30:34;8.77;;;7.60;;
20593;SDS011;10455;48.732;10.266;2023-04-24T04:35:38;8.20;;;7.40;;
20593;SDS011;10455;48.732;10.266;2023-04-24T04:40:41;7.63;;;6.73;;
20593;SDS011;10455;48.732;10.266;2023-04-24T04:45:43;9.23;;;6.97;;
20593;SDS011;10455;48.732;10.266;2023-04-24T04:50:45;8.10;;;7.27;;
20593;SDS011;10455;48.732;10.266;2023-04-24T04:55:48;8.97;;;7.30;;
20593;SDS011;10455;48.732;10.266;2023-04-24T05:00:50;10.10;;;7.00;;
20593;SDS011;10455;48.732;10.266;2023-04-24T05:05:53;7.47;;;6.47;;
20593;SDS011;10455;48.732;10.266;2023-04-24T05:10:56;7.47;;;6.40;;
20593;SDS011;10455;48.732;10.266;2023-04-24T05:15:58;9.67;;;6.20;;
20593;SDS011;10455;48.732;10.266;2023-04-24T05:21:00;6.53;;;5.90;;
20593;SDS011;10455;48.732;10.266;2023-04-24T05:26:03;6.00;;;5.40;;
20593;SDS011;10455;48.732;10.266;2023-04-24T05:31:05;7.13;;;5.80;;
20593;SDS011;10455;48.732;10.266;2023-04-24T05:36:07;7.33;;;6.63;;
20593;SDS011;10455;48.732;10.266;2023-04-24T05:41:11;7.23;;;6.43;;
20593;SDS011;10455;48.732;10.266;2023-04-24T05:46:13;7.83;;;7.13;;
20593;SDS011;10455;48.732;10.266;2023-04-24T05:51:15;7.23;;;6.53;;
20593;SDS011;10455;48.732;10.266;2023-04-24T05:56:18;7.37;;;6.77;;
20593;SDS011;10455;48.732;10.266;2023-04-24T06:01:20;6.53;;;5.80;;
20593;SDS011;10455;48.732;10.266;2023-04-24T06:06:23;6.03;;;3.77;;
20593;SDS011;10455;48.732;10.266;2023-04-24T06:11:27;6.40;;;4.53;;
20593;SDS011;10455;48.732;10.266;2023-04-24T06:16:29;5.80;;;5.17;;
20593;SDS011;10455;48.732;10.266;2023-04-24T06:21:32;7.67;;;5.67;;
20593;SDS011;10455;48.732;10.266;2023-04-24T06:26:35;7.00;;;5.40;;
20593;SDS011;10455;48.732;10.266;2023-04-24T06:31:37;10.17;;;5.70;;
20593;SDS011;10455;48.732;10.266;2023-04-24T06:36:43;10.33;;;5.70;;
20593;SDS011;10455;48.732;10.266;2023-04-24T06:41:46;6.40;;;4.03;;
20593;SDS011;10455;48.732;10.266;2023-04-24T06:46:48;5.73;;;4.07;;
20593;SDS011;10455;48.732;10.266;2023-04-24T06:51:50;11.43;;;4.40;;
20593;SDS011;10455;48.732;10.266;2023-04-24T06:56:53;7.87;;;5.47;;
20593;SDS011;10455;48.732;10.266;2023-04-24T07:01:57;10.40;;;5.80;;
20593;SDS011;10455;48.732;10.266;2023-04-24T07:06:59;9.90;;;5.40;;
20593;SDS011;10455;48.732;10.266;2023-04-24T07:12:02;11.30;;;5.50;;
20593;SDS011;10455;48.732;10.266;2023-04-24T07:17:04;7.57;;;5.27;;
20593;SDS011;10455;48.732;10.266;2023-04-24T07:22:06;8.03;;;4.97;;
20593;SDS011;10455;48.732;10.266;2023-04-24T07:27:09;7.73;;;4.67;;
20593;SDS011;10455;48.732;10.266;2023-04-24T07:32:11;39.67;;;6.53;;
20593;SDS011;10455;48.732;10.266;2023-04-24T07:37:13;7.43;;;4.28;;
20593;SDS011;10455;48.732;10.266;2023-04-24T07:42:17;3.90;;;3.05;;
20593;SDS011;10455;48.732;10.266;2023-04-24T07:47:19;5.03;;;3.10;;
20593;SDS011;10455;48.732;10.266;2023-04-24T07:52:21;3.87;;;3.47;;
20593;SDS011;10455;48.732;10.266;2023-04-24T07:57:24;3.50;;;3.20;;
20593;SDS011;10455;48.732;10.266;2023-04-24T08:02:26;3.60;;;3.17;;
20593;SDS011;10455;48.732;10.266;2023-04-24T08:07:28;5.03;;;3.40;;
20593;SDS011;10455;48.732;10.266;2023-04-24T08:12:31;3.30;;;3.00;;
20593;SDS011;10455;48.732;10.266;2023-04-24T08:17:33;3.30;;;3.00;;
20593;SDS011;10455;48.732;10.266;2023-04-24T08:22:36;3.10;;;2.67;;
20593;SDS011;10455;48.732;10.266;2023-04-24T08:27:39;4.15;;;2.80;;
20593;SDS011;10455;48.732;10.266;2023-04-24T08:32:41;3.05;;;2.75;;
20593;SDS011;10455;48.732;10.266;2023-04-24T08:37:43;3.13;;;2.58;;
20593;SDS011;10455;48.732;10.266;2023-04-24T08:42:46;2.90;;;2.70;;
20593;SDS011;10455;48.732;10.266;2023-04-24T08:47:48;3.55;;;3.25;;
20593;SDS011;10455;48.732;10.266;2023-04-24T08:52:51;4.78;;;4.38;;
20593;SDS011;10455;48.732;10.266;2023-04-24T08:57:55;6.30;;;5.70;;
20593;SDS011;10455;48.732;10.266;2023-04-24T09:02:57;5.27;;;4.77;;
20593;SDS011;10455;48.732;10.266;2023-04-24T09:08:01;6.27;;;4.63;;
20593;SDS011;10455;48.732;10.266;2023-04-24T09:13:07;5.47;;;4.23;;
20593;SDS011;10455;48.732;10.266;2023-04-24T09:18:10;6.70;;;4.30;;
20593;SDS011;10455;48.732;10.266;2023-04-24T09:23:17;25.45;;;5.13;;
20593;SDS011;10455;48.732;10.266;2023-04-24T09:28:22;59.78;;;5.82;;
20593;SDS011;10455;48.732;10.266;2023-04-24T09:33:27;13.07;;;3.90;;
20593;SDS011;10455;48.732;10.266;2023-04-24T09:38:30;21.80;;;4.30;;
20593;SDS011;10455;48.732;10.266;2023-04-24T09:43:35;3.65;;;2.90;;
20593;SDS011;10455;48.732;10.266;2023-04-24T09:48:38;3.00;;;2.80;;
20593;SDS011;10455;48.732;10.266;2023-04-24T09:53:44;3.20;;;2.90;;
20593;SDS011;10455;48.732;10.266;2023-04-24T09:58:50;2.97;;;2.78;;
20593;SDS011;10455;48.732;10.266;2023-04-24T10:03:53;2.50;;;2.40;;
20593;SDS011;10455;48.732;10.266;2023-04-24T10:08:55;3.28;;;2.20;;
20593;SDS011;10455;48.732;10.266;2023-04-24T10:13:59;2.95;;;2.75;;
20593;SDS011;10455;48.732;10.266;2023-04-24T10:19:01;2.88;;;2.45;;
20593;SDS011;10455;48.732;10.266;2023-04-24T10:24:04;3.17;;;2.72;;
20593;SDS011;10455;48.732;10.266;2023-04-24T10:29:08;3.03;;;2.83;;
20593;SDS011;10455;48.732;10.266;2023-04-24T10:34:13;3.40;;;3.10;;
20593;SDS011;10455;48.732;10.266;2023-04-24T10:39:16;3.83;;;3.47;;
20593;SDS011;10455;48.732;10.266;2023-04-24T10:44:22;3.78;;;3.55;;
20593;SDS011;10455;48.732;10.266;2023-04-24T10:49:27;3.72;;;3.42;;
20593;SDS011;10455;48.732;10.266;2023-04-24T10:54:34;4.57;;;3.78;;
20593;SDS011;10455;48.732;10.266;2023-04-24T10:59:38;3.83;;;3.53;;
20593;SDS011;10455;48.732;10.266;2023-04-24T11:04:41;3.65;;;3.40;;
20593;SDS011;10455;48.732;10.266;2023-04-24T11:09:43;3.97;;;3.72;;
20593;SDS011;10455;48.732;10.266;2023-04-24T11:15:02;3.97;;;3.50;;
20593;SDS011;10455;48.732;10.266;2023-04-24T11:20:05;3.40;;;3.20;;
20593;SDS011;10455;48.732;10.266;2023-04-24T11:25:09;3.60;;;3.40;;
20593;SDS011;10455;48.732;10.266;2023-04-24T11:30:16;3.90;;;3.70;;
20593;SDS011;10455;48.732;10.266;2023-04-24T11:35:20;4.05;;;3.80;;
20593;SDS011;10455;48.732;10.266;2023-04-24T11:40:24;3.92;;;3.72;;
20593;SDS011;10455;48.732;10.266;2023-04-24T11:45:29;4.18;;;3.70;;
20593;SDS011;10455;48.732;10.266;2023-04-24T11:50:31;3.60;;;3.40;;
20593;SDS011;10455;48.732;10.266;2023-04-24T11:55:33;3.92;;;3.63;;
20593;SDS011;10455;48.732;10.266;2023-04-24T12:00:37;3.72;;;3.53;;
20593;SDS011;10455;48.732;10.266;2023-04-24T12:05:39;3.83;;;3.63;;
20593;SDS011;10455;48.732;10.266;2023-04-24T12:10:41;4.00;;;3.58;;
20593;SDS011;10455;48.732;10.266;2023-04-24T12:15:44;4.05;;;3.85;;
20593;SDS011;10455;48.732;10.266;2023-04-24T12:20:46;3.97;;;3.67;;
20593;SDS011;10455;48.732;10.266;2023-04-24T12:25:48;4.47;;;4.10;;
20593;SDS011;10455;48.732;10.266;2023-04-24T12:30:54;4.20;;;3.90;;
20593;SDS011;10455;48.732;10.266;2023-04-24T12:35:56;3.65;;;3.45;;
20593;SDS011;10455;48.732;10.266;2023-04-24T12:41:02;3.80;;;3.50;;
20593;SDS011;10455;48.732;10.266;2023-04-24T12:46:06;3.40;;;3.30;;
20593;SDS011;10455;48.732;10.266;2023-04-24T12:51:08;4.07;;;3.83;;
20593;SDS011;10455;48.732;10.266;2023-04-24T12:56:10;4.05;;;3.75;;
20593;SDS011;10455;48.732;10.266;2023-04-24T13:01:14;4.35;;;4.00;;
20593;SDS011;10455;48.732;10.266;2023-04-24T13:06:16;5.35;;;3.80;;
20593;SDS011;10455;48.732;10.266;2023-04-24T13:11:18;4.40;;;4.10;;
20593;SDS011;10455;48.732;10.266;2023-04-24T13:16:21;4.03;;;3.72;;
20593;SDS011;10455;48.732;10.266;2023-04-24T13:21:23;4.57;;;4.32;;
20593;SDS011;10455;48.732;10.266;2023-04-24T13:26:26;4.20;;;3.90;;
20593;SDS011;10455;48.732;10.266;2023-04-24T13:31:29;4.60;;;4.20;;
20593;SDS011;10455;48.732;10.266;2023-04-24T13:36:31;4.13;;;3.93;;
20593;SDS011;10455;48.732;10.266;2023-04-24T13:41:33;4.60;;;4.30;;
20593;SDS011;10455;48.732;10.266;2023-04-24T13:46:37;4.00;;;3.70;;
20593;SDS011;10455;48.732;10.266;2023-04-24T13:51:39;4.13;;;3.83;;
20593;SDS011;10455;48.732;10.266;2023-04-24T13:56:42;4.00;;;3.70;;
20593;SDS011;10455;48.732;10.266;2023-04-24T14:01:46;4.18;;;3.97;;
20593;SDS011;10455;48.732;10.266;2023-04-24T14:06:48;4.80;;;4.50;;
20593;SDS011;10455;48.732;10.266;2023-04-24T14:11:51;4.20;;;3.90;;
20593;SDS011;10455;48.732;10.266;2023-04-24T14:16:54;4.63;;;4.32;;
20593;SDS011;10455;48.732;10.266;2023-04-24T14:21:56;4.25;;;3.95;;
20593;SDS011;10455;48.732;10.266;2023-04-24T14:26:58;4.53;;;4.13;;
20593;SDS011;10455;48.732;10.266;2023-04-24T14:32:02;4.93;;;4.18;;
20593;SDS011;10455;48.732;10.266;2023-04-24T14:37:04;4.47;;;3.97;;
20593;SDS011;10455;48.732;10.266;2023-04-24T14:42:06;4.10;;;3.90;;
20593;SDS011;10455;48.732;10.266;2023-04-24T14:47:09;4.40;;;4.20;;
20593;SDS011;10455;48.732;10.266;2023-04-24T14:52:11;4.57;;;4.27;;
20593;SDS011;10455;48.732;10.266;2023-04-24T14:57:13;4.80;;;4.60;;
20593;SDS011;10455;48.732;10.266;2023-04-24T15:02:16;4.68;;;4.38;;
20593;SDS011;10455;48.732;10.266;2023-04-24T15:07:18;4.28;;;4.05;;
20593;SDS011;10455;48.732;10.266;2023-04-24T15:12:21;4.03;;;3.72;;
20593;SDS011;10455;48.732;10.266;2023-04-24T15:17:24;4.28;;;3.97;;
20593;SDS011;10455;48.732;10.266;2023-04-24T15:22:26;5.10;;;4.70;;
20593;SDS011;10455;48.732;10.266;2023-04-24T15:27:38;5.20;;;4.80;;
20593;SDS011;10455;48.732;10.266;2023-04-24T15:32:42;5.43;;;5.10;;
20593;SDS011;10455;48.732;10.266;2023-04-24T15:37:44;5.67;;;5.27;;
20593;SDS011;10455;48.732;10.266;2023-04-24T15:42:46;5.27;;;4.97;;
20593;SDS011;10455;48.732;10.266;2023-04-24T15:47:50;5.30;;;4.90;;
20593;SDS011;10455;48.732;10.266;2023-04-24T15:52:52;5.23;;;4.90;;
20593;SDS011;10455;48.732;10.266;2023-04-24T15:57:54;5.17;;;4.30;;
20593;SDS011;10455;48.732;10.266;2023-04-24T16:02:57;4.55;;;4.13;;
20593;SDS011;10455;48.732;10.266;2023-04-24T16:07:59;5.13;;;4.30;;
20593;SDS011;10455;48.732;10.266;2023-04-24T16:13:01;4.73;;;4.43;;
20593;SDS011;10455;48.732;10.266;2023-04-24T16:18:05;4.73;;;4.40;;
20593;SDS011;10455;48.732;10.266;2023-04-24T16:23:07;4.47;;;4.17;;
20593;SDS011;10455;48.732;10.266;2023-04-24T16:28:09;4.80;;;4.40;;
20593;SDS011;10455;48.732;10.266;2023-04-24T16:33:12;5.10;;;4.70;;
20593;SDS011;10455;48.732;10.266;2023-04-24T16:38:14;4.80;;;4.50;;
20593;SDS011;10455;48.732;10.266;2023-04-24T16:43:16;5.00;;;4.60;;
20593;SDS011;10455;48.732;10.266;2023-04-24T16:48:20;4.70;;;4.30;;
20593;SDS011;10455;48.732;10.266;2023-04-24T16:53:22;5.03;;;4.50;;
20593;SDS011;10455;48.732;10.266;2023-04-24T16:58:24;5.10;;;4.70;;
20593;SDS011;10455;48.732;10.266;2023-04-24T17:03:27;4.70;;;4.40;;
20593;SDS011;10455;48.732;10.266;2023-04-24T17:08:29;4.60;;;4.20;;
20593;SDS011;10455;48.732;10.266;2023-04-24T17:13:31;5.47;;;4.97;;
20593;SDS011;10455;48.732;10.266;2023-04-24T17:18:35;5.57;;;5.17;;
20593;SDS011;10455;48.732;10.266;2023-04-24T17:23:37;5.63;;;5.13;;
20593;SDS011;10455;48.732;10.266;2023-04-24T17:28:38;4.90;;;4.60;;
20593;SDS011;10455;48.732;10.266;2023-04-24T17:33:42;4.47;;;4.17;;
20593;SDS011;10455;48.732;10.266;2023-04-24T17:38:44;5.20;;;4.80;;
20593;SDS011;10455;48.732;10.266;2023-04-24T17:43:46;5.10;;;4.70;;
20593;SDS011;10455;48.732;10.266;2023-04-24T17:48:49;4.97;;;4.63;;
20593;SDS011;10455;48.732;10.266;2023-04-24T17:53:51;5.53;;;5.13;;
20593;SDS011;10455;48.732;10.266;2023-04-24T17:58:53;5.33;;;4.93;;
20593;SDS011;10455;48.732;10.266;2023-04-24T18:03:56;4.70;;;4.30;;
20593;SDS011;10455;48.732;10.266;2023-04-24T18:08:58;4.90;;;4.60;;
20593;SDS011;10455;48.732;10.266;2023-04-24T18:14:00;5.37;;;4.87;;
20593;SDS011;10455;48.732;10.266;2023-04-24T18:19:03;4.93;;;4.53;;
20593;SDS011;10455;48.732;10.266;2023-04-24T18:24:06;4.90;;;4.60;;
20593;SDS011;10455;48.732;10.266;2023-04-24T18:29:09;5.57;;;5.17;;
20593;SDS011;10455;48.732;10.266;2023-04-24T18:34:12;6.27;;;5.83;;
20593;SDS011;10455;48.732;10.266;2023-04-24T18:39:14;5.60;;;5.20;;
20593;SDS011;10455;48.732;10.266;2023-04-24T18:44:16;6.20;;;5.70;;
20593;SDS011;10455;48.732;10.266;2023-04-24T18:49:20;5.57;;;5.17;;
20593;SDS011;10455;48.732;10.266;2023-04-24T18:54:22;8.87;;;8.03;;
20593;SDS011;10455;48.732;10.266;2023-04-24T18:59:24;6.73;;;6.23;;
20593;SDS011;10455;48.732;10.266;2023-04-24T19:04:29;7.20;;;6.63;;
20593;SDS011;10455;48.732;10.266;2023-04-24T19:09:33;8.10;;;5.80;;
20593;SDS011;10455;48.732;10.266;2023-04-24T19:14:35;6.03;;;5.47;;
20593;SDS011;10455;48.732;10.266;2023-04-24T19:19:38;5.90;;;5.50;;
20593;SDS011;10455;48.732;10.266;2023-04-24T19:24:40;7.47;;;6.93;;
20593;SDS011;10455;48.732;10.266;2023-04-24T19:29:42;13.13;;;12.10;;
20593;SDS011;10455;48.732;10.266;2023-04-24T19:34:45;13.13;;;12.13;;
20593;SDS011;10455;48.732;10.266;2023-04-24T19:39:47;6.83;;;6.33;;
20593;SDS011;10455;48.732;10.266;2023-04-24T19:44:49;6.77;;;6.23;;
20593;SDS011;10455;48.732;10.266;2023-04-24T19:49:52;6.37;;;5.93;;
20593;SDS011;10455;48.732;10.266;2023-04-24T19:54:54;8.93;;;8.17;;
20593;SDS011;10455;48.732;10.266;2023-04-24T19:59:56;6.43;;;5.93;;
20593;SDS011;10455;48.732;10.266;2023-04-24T20:04:59;6.00;;;5.60;;
20593;SDS011;10455;48.732;10.266;2023-04-24T20:10:01;4.87;;;4.53;;
20593;SDS011;10455;48.732;10.266;2023-04-24T20:15:03;5.37;;;4.90;;
20593;SDS011;10455;48.732;10.266;2023-04-24T20:20:08;5.20;;;4.80;;
20593;SDS011;10455;48.732;10.266;2023-04-24T20:25:10;5.50;;;4.97;;
20593;SDS011;10455;48.732;10.266;2023-04-24T20:30:13;5.47;;;5.03;;
20593;SDS011;10455;48.732;10.266;2023-04-24T20:35:17;5.40;;;5.00;;
20593;SDS011;10455;48.732;10.266;2023-04-24T20:40:19;5.27;;;4.90;;
20593;SDS011;10455;48.732;10.266;2023-04-24T20:45:21;5.17;;;4.77;;
20593;SDS011;10455;48.732;10.266;2023-04-24T20:50:24;5.57;;;5.20;;
20593;SDS011;10455;48.732;10.266;2023-04-24T20:55:26;6.00;;;5.50;;
20593;SDS011;10455;48.732;10.266;2023-04-24T21:00:28;5.80;;;5.30;;
20593;SDS011;10455;48.732;10.266;2023-04-24T21:05:32;5.40;;;5.00;;
20593;SDS011;10455;48.732;10.266;2023-04-24T21:10:34;5.70;;;5.10;;
20593;SDS011;10455;48.732;10.266;2023-04-24T21:15:36;6.10;;;5.60;;
20593;SDS011;10455;48.732;10.266;2023-04-24T21:20:39;16.80;;;11.67;;
20593;SDS011;10455;48.732;10.266;2023-04-24T21:25:41;5.43;;;5.00;;
20593;SDS011;10455;48.732;10.266;2023-04-24T21:30:43;5.73;;;5.23;;
20593;SDS011;10455;48.732;10.266;2023-04-24T21:35:46;5.80;;;5.20;;
20593;SDS011;10455;48.732;10.266;2023-04-24T21:40:48;5.57;;;5.17;;
20593;SDS011;10455;48.732;10.266;2023-04-24T21:45:50;5.33;;;4.93;;
20593;SDS011;10455;48.732;10.266;2023-04-24T21:50:54;4.67;;;4.27;;
20593;SDS011;10455;48.732;10.266;2023-04-24T21:55:55;5.30;;;4.60;;
20593;SDS011;10455;48.732;10.266;2023-04-24T22:00:57;5.17;;;4.77;;
20593;SDS011;10455;48.732;10.266;2023-04-24T22:06:00;5.40;;;5.00;;
20593;SDS011;10455;48.732;10.266;2023-04-24T22:11:02;5.30;;;4.90;;
20593;SDS011;10455;48.732;10.266;2023-04-24T22:16:05;5.37;;;5.00;;
20593;SDS011;10455;48.732;10.266;2023-04-24T22:21:08;5.47;;;4.97;;
20593;SDS011;10455;48.732;10.266;2023-04-24T22:26:10;5.70;;;5.30;;
20593;SDS011;10455;48.732;10.266;2023-04-24T22:31:11;5.47;;;5.00;;
20593;SDS011;10455;48.732;10.266;2023-04-24T22:36:15;5.57;;;5.17;;
20593;SDS011;10455;48.732;10.266;2023-04-24T22:41:17;8.00;;;5.77;;
20593;SDS011;10455;48.732;10.266;2023-04-24T22:46:19;5.60;;;5.20;;
20593;SDS011;10455;48.732;10.266;2023-04-24T22:51:22;5.57;;;5.17;;
20593;SDS011;10455;48.732;10.266;2023-04-24T22:56:25;5.73;;;5.23;;
20593;SDS011;10455;48.732;10.266;2023-04-24T23:01:26;6.17;;;5.20;;
20593;SDS011;10455;48.732;10.266;2023-04-24T23:06:30;6.10;;;5.60;;
20593;SDS011;10455;48.732;10.266;2023-04-24T23:11:32;6.70;;;6.20;;
20593;SDS011;10455;48.732;10.266;2023-04-24T23:16:34;6.77;;;6.27;;
20593;SDS011;10455;48.732;10.266;2023-04-24T23:21:39;7.00;;;6.40;;
20593;SDS011;10455;48.732;10.266;2023-04-24T23:26:41;6.70;;;6.20;;
20593;SDS011;10455;48.732;10.266;2023-04-24T23:31:43;7.57;;;6.77;;
20593;SDS011;10455;48.732;10.266;2023-04-24T23:36:46;6.83;;;6.20;;
20593;SDS011;10455;48.732;10.266;2023-04-24T23:41:49;6.80;;;6.20;;
20593;SDS011;10455;48.732;10.266;2023-04-24T23:46:52;6.93;;;6.33;;
20593;SDS011;10455;48.732;10.266;2023-04-24T23:51:55;7.20;;;6.50;;
20593;SDS011;10455;48.732;10.266;2023-04-24T23:56:57;7.23;;;6.63;;
